Terminal Aerodrome Forecast
Issued by NWS Anchorage, AK

Home | Current Version | Previous Version | Text Only | Print | Product List | Glossary On
Versions: 1 2 3 4 5 6 7 8 9 10 11 12 13 14 15 16 17 18 19 20 21 22 23 24 25 26 27 28 29 30 31
000
FTAK31 PANC 201126
TAFANC
TAF
PANC 201126Z 2012/2118 01007KT P6SM FEW070 BKN200
     FM210900 VRB04KT P6SM -SN BKN035 OVC060=

USA.gov is the U.S. government's official web portal to all federal, state and local government web resources and services.